Afton, CA

2:35 PM PST on November 27, 2014 (GMT -0800)
Chico Municipal | Change Station
CLOSE
Current Station
Airport
Location: Chico,
Elevation: 240 ft
Nearby Weather Stations
Active Advisory: Special Statement

Elev 240 ft 39.80 °N, 121.86 °W | Updated 45 minutes ago

Clear
Clear
61 °F
Feels Like 61 °F
N
0
Wind Variable Wind from North

Today
High -- | Low -- °F
--% Chance of Precip.
Yesterday
High -- | Low -- °F
Precip. -- in
7:04 AM 4:45 PM
Waxing Crescent, 33% visible
Pressure 30.12 in
Visibility 40.0 miles
Clouds Few 10000 ft
Scattered Clouds 15000 ft
Mostly Cloudy 20000 ft
Dew Point 48 °F
Humidity 63%
Rainfall 0.00 in
Snow Depth Not available.
UV 1 out of 12
Pollen 1.90 out of 12
Air Quality Not available.
Flu Activity Not available.
METAR KCIC 272150Z 00000KT 40SM FEW100 SCT150 BKN200 16/09 A3012

More Conditions Fewer Conditions

Pressure 30.12 in
Visibility 40.0 miles
Clouds Few 10000 ft
Scattered Clouds 15000 ft
Mostly Cloudy 20000 ft
Dew Point 48 °F
Humidity 63%
Rainfall 0.00 in
Snow Depth Not available.
UV 1 out of 12
Pollen 1.90 out of 12
Air Quality Not available.
Flu Activity Not available.
METAR KCIC 272150Z 00000KT 40SM FEW100 SCT150 BKN200 16/09 A3012

More Conditions Fewer Conditions

10-Day Weather Forecast

Almanac

Astronomy

Nov. 27, 2014 Rise Set
Actual Time
Civil Twilight
Nautical Twilight
Astronomical Twilight
Moon
Length of Visible Light
Length of Day
Tomorrow will be .
, % of the Moon is Illuminated

Today's Extremes

State Highs State Lows

Community

WunderPhotos

Upload Photos

1,774,125 photos uploaded!

WunderBlogs® & News

Nearby

Air Quality

  Air Quality AQ Index Pollutant
Not available.

Snow Depth

Station Depth Elevation

Earthquake Activity

City Distance Mag. Time & Date
Minimum magnitude displayed is 2.5.

Coastal Water Temperatures

Place Temperature

Nearby Weather Stations